Terminal Aerodrome Forecast
Issued by NWS Sterling, VA

Current Version | Previous Version | Graphics & Text | Print | Product List | Glossary On
Versions: 1 2 3 4 5 6 7 8 9 10 11 12 13 14 15 16 17 18 19 20 21 22 23 24 25 26 27 28 29
884
FTUS41 KLWX 030848 AAA
TAFIAD
TAF AMD
KIAD 030848Z 0309/0412 16007KT P6SM OVC028
     FM031100 17007KT 5SM -DZ BR OVC012 WS020/17040KT
     FM031400 18010KT 3SM -SHRA BR OVC008 WS020/19045KT
     FM031800 18012G20KT 2SM -RA BR OVC008
     FM032100 24008G16KT 2SM -RA BR OVC020
     FM040000 VRB03KT P6SM VCSH OVC040
     FM040600 26005KT P6SM VCSH BKN150=

USA.gov is the U.S. government's official web portal to all federal, state and local government web resources and services.